sensor_id;sensor_type;location;lat;lon;timestamp;pressure;altitude;pressure_sealevel;temperature;humidity
37390;BME280;39679;49.000;8.390;2022-09-28T00:00:00;98441.69;;;18.50;52.87
37390;BME280;39679;49.000;8.390;2022-09-28T00:05:00;98435.53;;;18.49;52.81
37390;BME280;39679;49.000;8.390;2022-09-28T00:10:01;98411.66;;;18.49;52.97
37390;BME280;39679;49.000;8.390;2022-09-28T00:15:01;98391.44;;;18.47;52.98
37390;BME280;39679;49.000;8.390;2022-09-28T00:20:02;98394.78;;;18.50;53.01
37390;BME280;39679;49.000;8.390;2022-09-28T00:25:03;98378.97;;;18.49;53.00
37390;BME280;39679;49.000;8.390;2022-09-28T00:30:04;98378.03;;;18.50;53.01
37390;BME280;39679;49.000;8.390;2022-09-28T00:35:05;98363.06;;;18.49;52.71
37390;BME280;39679;49.000;8.390;2022-09-28T00:40:06;98356.81;;;18.50;52.94
37390;BME280;39679;49.000;8.390;2022-09-28T00:45:07;98348.00;;;18.49;52.93
37390;BME280;39679;49.000;8.390;2022-09-28T00:50:30;98337.38;;;18.49;52.71
37390;BME280;39679;49.000;8.390;2022-09-28T00:55:59;98326.78;;;18.49;52.84
37390;BME280;39679;49.000;8.390;2022-09-28T01:01:01;98322.41;;;18.48;52.78
37390;BME280;39679;49.000;8.390;2022-09-28T01:06:03;98308.31;;;18.48;52.95
37390;BME280;39679;49.000;8.390;2022-09-28T01:11:05;98288.88;;;18.47;53.29
37390;BME280;39679;49.000;8.390;2022-09-28T01:21:52;98281.78;;;18.48;53.36
37390;BME280;39679;49.000;8.390;2022-09-28T01:37:34;98262.34;;;18.47;53.47
37390;BME280;39679;49.000;8.390;2022-09-28T01:42:36;98257.03;;;18.47;53.58
37390;BME280;39679;49.000;8.390;2022-09-28T01:47:38;98266.78;;;18.47;53.56
37390;BME280;39679;49.000;8.390;2022-09-28T01:52:47;98250.00;;;18.46;53.53
37390;BME280;39679;49.000;8.390;2022-09-28T01:57:55;98263.22;;;18.48;53.73
37390;BME280;39679;49.000;8.390;2022-09-28T02:03:19;98258.84;;;18.47;53.72
37390;BME280;39679;49.000;8.390;2022-09-28T02:08:27;98257.03;;;18.47;53.74
37390;BME280;39679;49.000;8.390;2022-09-28T02:13:37;98262.34;;;18.47;53.66
37390;BME280;39679;49.000;8.390;2022-09-28T02:18:40;98245.56;;;18.47;53.78
37390;BME280;39679;49.000;8.390;2022-09-28T02:29:04;98251.75;;;18.47;53.87
37390;BME280;39679;49.000;8.390;2022-09-28T02:34:05;98249.09;;;18.47;53.88
37390;BME280;39679;49.000;8.390;2022-09-28T02:39:15;98241.13;;;18.47;53.84
37390;BME280;39679;49.000;8.390;2022-09-28T02:44:29;98250.00;;;18.46;53.60
37390;BME280;39679;49.000;8.390;2022-09-28T02:49:54;98243.78;;;18.47;53.86
37390;BME280;39679;49.000;8.390;2022-09-28T03:11:20;98242.81;;;18.48;53.89
37390;BME280;39679;49.000;8.390;2022-09-28T03:16:21;98243.88;;;18.46;53.86
37390;BME280;39679;49.000;8.390;2022-09-28T03:21:22;98247.34;;;18.46;53.65
37390;BME280;39679;49.000;8.390;2022-09-28T03:26:22;98244.72;;;18.46;53.82
37390;BME280;39679;49.000;8.390;2022-09-28T03:31:23;98254.38;;;18.47;53.86
37390;BME280;39679;49.000;8.390;2022-09-28T03:36:23;98250.00;;;18.46;53.78
37390;BME280;39679;49.000;8.390;2022-09-28T03:41:24;98242.06;;;18.46;53.86
37390;BME280;39679;49.000;8.390;2022-09-28T03:46:24;98231.44;;;18.46;53.74
37390;BME280;39679;49.000;8.390;2022-09-28T03:51:24;98243.88;;;18.46;53.97
37390;BME280;39679;49.000;8.390;2022-09-28T03:56:25;98238.56;;;18.46;53.79
37390;BME280;39679;49.000;8.390;2022-09-28T04:01:25;98235.91;;;18.46;53.83
37390;BME280;39679;49.000;8.390;2022-09-28T04:06:26;98239.41;;;18.46;53.73
37390;BME280;39679;49.000;8.390;2022-09-28T04:11:26;98239.41;;;18.46;53.80
37390;BME280;39679;49.000;8.390;2022-09-28T04:16:27;98237.72;;;18.45;53.95
37390;BME280;39679;49.000;8.390;2022-09-28T04:21:27;98243.00;;;18.45;53.89
37390;BME280;39679;49.000;8.390;2022-09-28T04:26:27;98257.13;;;18.46;53.87
37390;BME280;39679;49.000;8.390;2022-09-28T04:31:28;98243.94;;;18.44;53.94
37390;BME280;39679;49.000;8.390;2022-09-28T04:36:29;98254.53;;;18.44;53.75
37390;BME280;39679;49.000;8.390;2022-09-28T04:41:29;98266.97;;;18.44;53.75
37390;BME280;39679;49.000;8.390;2022-09-28T04:46:29;98269.63;;;18.44;53.81
37390;BME280;39679;49.000;8.390;2022-09-28T04:51:30;98249.25;;;18.44;53.86
37390;BME280;39679;49.000;8.390;2022-09-28T04:56:31;98252.84;;;18.43;53.39
37390;BME280;39679;49.000;8.390;2022-09-28T05:01:31;98254.59;;;18.43;53.92
37390;BME280;39679;49.000;8.390;2022-09-28T05:06:31;98260.81;;;18.43;53.96
37390;BME280;39679;49.000;8.390;2022-09-28T05:11:32;98251.09;;;18.42;53.73
37390;BME280;39679;49.000;8.390;2022-09-28T05:16:32;98265.22;;;18.43;53.90
37390;BME280;39679;49.000;8.390;2022-09-28T05:21:32;98273.16;;;18.43;53.80
37390;BME280;39679;49.000;8.390;2022-09-28T05:26:33;98269.66;;;18.42;53.90
37390;BME280;39679;49.000;8.390;2022-09-28T05:31:33;98278.47;;;18.43;53.74
37390;BME280;39679;49.000;8.390;2022-09-28T05:36:34;98284.75;;;18.42;53.70
37390;BME280;39679;49.000;8.390;2022-09-28T05:41:35;98288.22;;;18.42;53.87
37390;BME280;39679;49.000;8.390;2022-09-28T05:46:35;98285.56;;;18.42;53.69
37390;BME280;39679;49.000;8.390;2022-09-28T05:51:36;98296.28;;;18.41;53.61
37390;BME280;39679;49.000;8.390;2022-09-28T05:56:36;98286.63;;;18.40;53.65
37390;BME280;39679;49.000;8.390;2022-09-28T06:01:36;98285.66;;;18.41;53.66
37390;BME280;39679;49.000;8.390;2022-09-28T06:06:37;98285.66;;;18.41;53.88
37390;BME280;39679;49.000;8.390;2022-09-28T06:11:37;98291.06;;;18.39;53.68
37390;BME280;39679;49.000;8.390;2022-09-28T06:16:38;98299.09;;;18.38;53.63
37390;BME280;39679;49.000;8.390;2022-09-28T06:21:39;98307.22;;;18.35;52.96
37390;BME280;39679;49.000;8.390;2022-09-28T06:26:39;98303.69;;;18.34;53.54
37390;BME280;39679;49.000;8.390;2022-09-28T06:31:39;98317.97;;;18.32;53.55
37390;BME280;39679;49.000;8.390;2022-09-28T06:36:40;98318.94;;;18.31;53.35
37390;BME280;39679;49.000;8.390;2022-09-28T06:41:40;98320.91;;;18.27;53.44
37390;BME280;39679;49.000;8.390;2022-09-28T06:46:41;98330.66;;;18.27;53.27
37390;BME280;39679;49.000;8.390;2022-09-28T06:51:41;98335.94;;;18.27;53.30
37390;BME280;39679;49.000;8.390;2022-09-28T06:56:41;98347.47;;;18.26;53.22
37390;BME280;39679;49.000;8.390;2022-09-28T07:01:42;98351.06;;;18.25;53.52
37390;BME280;39679;49.000;8.390;2022-09-28T07:06:46;98377.59;;;18.25;53.32
37390;BME280;39679;49.000;8.390;2022-09-28T07:11:47;98375.03;;;18.23;53.25
37390;BME280;39679;49.000;8.390;2022-09-28T07:16:47;98376.81;;;18.23;53.40
37390;BME280;39679;49.000;8.390;2022-09-28T07:21:47;98388.19;;;18.25;54.00
37390;BME280;39679;49.000;8.390;2022-09-28T07:26:50;98396.06;;;18.26;53.76
37390;BME280;39679;49.000;8.390;2022-09-28T07:31:52;98405.66;;;18.29;54.00
37390;BME280;39679;49.000;8.390;2022-09-28T07:36:52;98415.31;;;18.30;54.10
37390;BME280;39679;49.000;8.390;2022-09-28T07:41:53;98410.88;;;18.30;54.12
37390;BME280;39679;49.000;8.390;2022-09-28T07:46:53;98413.44;;;18.32;53.84
37390;BME280;39679;49.000;8.390;2022-09-28T07:51:54;98416.09;;;18.32;54.00
37390;BME280;39679;49.000;8.390;2022-09-28T07:56:54;98424.03;;;18.32;53.89
37390;BME280;39679;49.000;8.390;2022-09-28T08:01:55;98432.88;;;18.32;53.83
37390;BME280;39679;49.000;8.390;2022-09-28T08:06:55;98446.03;;;18.34;53.96
37390;BME280;39679;49.000;8.390;2022-09-28T08:11:55;98441.69;;;18.33;53.79
37390;BME280;39679;49.000;8.390;2022-09-28T08:16:56;98447.00;;;18.33;53.65
37390;BME280;39679;49.000;8.390;2022-09-28T08:21:56;98454.09;;;18.32;53.81
37390;BME280;39679;49.000;8.390;2022-09-28T08:26:56;98454.09;;;18.32;53.82
37390;BME280;39679;49.000;8.390;2022-09-28T08:31:57;98457.59;;;18.33;53.74
37390;BME280;39679;49.000;8.390;2022-09-28T08:36:58;98474.38;;;18.33;53.74
37390;BME280;39679;49.000;8.390;2022-09-28T08:47:44;98483.25;;;18.32;53.74
37390;BME280;39679;49.000;8.390;2022-09-28T08:52:52;98488.47;;;18.34;53.69
37390;BME280;39679;49.000;8.390;2022-09-28T08:58:22;98486.69;;;18.34;53.72
37390;BME280;39679;49.000;8.390;2022-09-28T09:03:34;98495.50;;;18.35;53.62
37390;BME280;39679;49.000;8.390;2022-09-28T09:08:41;98503.38;;;18.36;53.84
37390;BME280;39679;49.000;8.390;2022-09-28T09:19:54;98505.97;;;18.38;54.50
37390;BME280;39679;49.000;8.390;2022-09-28T09:30:25;98509.47;;;18.38;54.54
37390;BME280;39679;49.000;8.390;2022-09-28T09:35:38;98508.53;;;18.39;54.62
37390;BME280;39679;49.000;8.390;2022-09-28T09:46:14;98512.09;;;18.38;54.11
37390;BME280;39679;49.000;8.390;2022-09-28T09:52:03;98522.72;;;18.38;53.84
37390;BME280;39679;49.000;8.390;2022-09-28T09:57:12;98528.03;;;18.38;53.83
37390;BME280;39679;49.000;8.390;2022-09-28T10:07:27;98534.19;;;18.39;53.67
37390;BME280;39679;49.000;8.390;2022-09-28T10:12:29;98528.97;;;18.37;53.60
37390;BME280;39679;49.000;8.390;2022-09-28T10:17:29;98527.19;;;18.38;53.57
37390;BME280;39679;49.000;8.390;2022-09-28T10:22:31;98533.31;;;18.38;53.54
37390;BME280;39679;49.000;8.390;2022-09-28T10:27:34;98529.84;;;18.38;53.61
37390;BME280;39679;49.000;8.390;2022-09-28T10:32:37;98529.84;;;18.38;53.52
37390;BME280;39679;49.000;8.390;2022-09-28T10:37:55;98535.06;;;18.39;53.68
37390;BME280;39679;49.000;8.390;2022-09-28T10:43:02;98534.09;;;18.40;53.70
37390;BME280;39679;49.000;8.390;2022-09-28T10:48:05;98534.09;;;18.40;53.55
37390;BME280;39679;49.000;8.390;2022-09-28T10:53:18;98521.72;;;18.41;53.52
37390;BME280;39679;49.000;8.390;2022-09-28T10:58:27;98528.81;;;18.40;53.80
37390;BME280;39679;49.000;8.390;2022-09-28T11:03:28;98517.34;;;18.40;53.47
37390;BME280;39679;49.000;8.390;2022-09-28T11:08:42;98520.78;;;18.42;53.58
37390;BME280;39679;49.000;8.390;2022-09-28T11:13:46;98517.28;;;18.41;53.49
37390;BME280;39679;49.000;8.390;2022-09-28T11:18:47;98511.09;;;18.41;53.19
37390;BME280;39679;49.000;8.390;2022-09-28T11:23:59;98517.19;;;18.43;53.68
37390;BME280;39679;49.000;8.390;2022-09-28T11:29:00;98508.34;;;18.44;53.44
37390;BME280;39679;49.000;8.390;2022-09-28T11:34:22;98508.25;;;18.45;53.56
37390;BME280;39679;49.000;8.390;2022-09-28T11:39:32;98506.38;;;18.47;53.49
37390;BME280;39679;49.000;8.390;2022-09-28T11:44:38;98508.94;;;18.49;53.28
37390;BME280;39679;49.000;8.390;2022-09-28T11:55:37;98505.28;;;18.51;53.47
37390;BME280;39679;49.000;8.390;2022-09-28T12:00:17;98505.28;;;18.51;53.08
37390;BME280;39679;49.000;8.390;2022-09-28T12:05:23;98501.84;;;18.49;53.03
37390;BME280;39679;49.000;8.390;2022-09-28T12:10:36;98505.28;;;18.51;53.16
37390;BME280;39679;49.000;8.390;2022-09-28T12:20:47;98491.00;;;18.54;53.35
37390;BME280;39679;49.000;8.390;2022-09-28T12:25:56;98487.31;;;18.56;53.23
37390;BME280;39679;49.000;8.390;2022-09-28T12:31:10;98491.59;;;18.59;53.30
37390;BME280;39679;49.000;8.390;2022-09-28T12:36:26;98488.81;;;18.62;53.03
37390;BME280;39679;49.000;8.390;2022-09-28T12:52:03;98489.81;;;18.59;52.55
37390;BME280;39679;49.000;8.390;2022-09-28T13:08:07;98480.13;;;18.58;52.40
37390;BME280;39679;49.000;8.390;2022-09-28T13:23:45;98472.16;;;18.58;52.30
37390;BME280;39679;49.000;8.390;2022-09-28T13:28:47;98469.59;;;18.57;52.36
37390;BME280;39679;49.000;8.390;2022-09-28T13:33:48;98480.13;;;18.58;52.43
37390;BME280;39679;49.000;8.390;2022-09-28T13:38:50;98467.72;;;18.59;52.35
37390;BME280;39679;49.000;8.390;2022-09-28T13:49:25;98470.13;;;18.63;52.29
37390;BME280;39679;49.000;8.390;2022-09-28T14:05:30;98476.22;;;18.65;52.20
37390;BME280;39679;49.000;8.390;2022-09-28T14:10:55;98480.75;;;18.63;52.04
37390;BME280;39679;49.000;8.390;2022-09-28T14:32:20;98504.78;;;18.60;51.94
37390;BME280;39679;49.000;8.390;2022-09-28T14:37:31;98507.53;;;18.59;52.02
37390;BME280;39679;49.000;8.390;2022-09-28T14:42:32;98505.81;;;18.58;52.03
37390;BME280;39679;49.000;8.390;2022-09-28T14:47:37;98505.81;;;18.58;51.88
37390;BME280;39679;49.000;8.390;2022-09-28T14:52:43;98517.34;;;18.57;52.05
37390;BME280;39679;49.000;8.390;2022-09-28T14:57:51;98539.53;;;18.56;51.92
37390;BME280;39679;49.000;8.390;2022-09-28T15:02:54;98532.41;;;18.56;51.89
37390;BME280;39679;49.000;8.390;2022-09-28T15:07:58;98526.31;;;18.54;51.88
37390;BME280;39679;49.000;8.390;2022-09-28T15:13:05;98541.41;;;18.54;51.93
37390;BME280;39679;49.000;8.390;2022-09-28T15:28:26;98530.94;;;18.51;52.00
37390;BME280;39679;49.000;8.390;2022-09-28T15:33:32;98531.91;;;18.50;51.94
37390;BME280;39679;49.000;8.390;2022-09-28T15:38:33;98534.53;;;18.50;52.06
37390;BME280;39679;49.000;8.390;2022-09-28T15:43:37;98531.94;;;18.48;52.12
37390;BME280;39679;49.000;8.390;2022-09-28T15:48:53;98532.81;;;18.49;52.13
37390;BME280;39679;49.000;8.390;2022-09-28T15:54:03;98548.81;;;18.47;52.01
37390;BME280;39679;49.000;8.390;2022-09-28T16:15:31;98556.91;;;18.44;52.01
37390;BME280;39679;49.000;8.390;2022-09-28T16:20:37;98548.13;;;18.44;52.01
37390;BME280;39679;49.000;8.390;2022-09-28T16:25:47;98542.81;;;18.44;52.04
37390;BME280;39679;49.000;8.390;2022-09-28T16:36:13;98549.97;;;18.42;52.03
37390;BME280;39679;49.000;8.390;2022-09-28T16:41:16;98564.94;;;18.43;52.07
37390;BME280;39679;49.000;8.390;2022-09-28T16:46:19;98565.88;;;18.42;52.22
37390;BME280;39679;49.000;8.390;2022-09-28T16:51:22;98580.06;;;18.41;52.14
37390;BME280;39679;49.000;8.390;2022-09-28T16:56:23;98599.41;;;18.43;52.11
37390;BME280;39679;49.000;8.390;2022-09-28T17:01:24;98606.59;;;18.41;52.19
37390;BME280;39679;49.000;8.390;2022-09-28T17:06:25;98614.47;;;18.42;52.50
37390;BME280;39679;49.000;8.390;2022-09-28T17:11:26;98592.41;;;18.42;52.73
37390;BME280;39679;49.000;8.390;2022-09-28T17:16:27;98584.38;;;18.43;52.66
37390;BME280;39679;49.000;8.390;2022-09-28T17:21:28;98593.22;;;18.44;52.72
37390;BME280;39679;49.000;8.390;2022-09-28T17:26:29;98590.56;;;18.44;52.73
37390;BME280;39679;49.000;8.390;2022-09-28T17:31:29;98588.75;;;18.44;52.64
37390;BME280;39679;49.000;8.390;2022-09-28T17:36:29;98589.69;;;18.43;52.65
37390;BME280;39679;49.000;8.390;2022-09-28T17:41:30;98587.94;;;18.42;52.63
37390;BME280;39679;49.000;8.390;2022-09-28T17:46:36;98596.75;;;18.43;52.65
37390;BME280;39679;49.000;8.390;2022-09-28T17:51:37;98598.53;;;18.42;52.84
37390;BME280;39679;49.000;8.390;2022-09-28T17:56:38;98608.31;;;18.42;52.63
37390;BME280;39679;49.000;8.390;2022-09-28T18:01:38;98603.94;;;18.41;52.64
37390;BME280;39679;49.000;8.390;2022-09-28T18:06:42;98612.75;;;18.41;52.67
37390;BME280;39679;49.000;8.390;2022-09-28T18:11:43;98619.84;;;18.41;52.60
37390;BME280;39679;49.000;8.390;2022-09-28T18:16:43;98624.28;;;18.40;52.71
37390;BME280;39679;49.000;8.390;2022-09-28T18:21:44;98621.72;;;18.39;52.56
37390;BME280;39679;49.000;8.390;2022-09-28T18:26:44;98628.81;;;18.38;52.59
37390;BME280;39679;49.000;8.390;2022-09-28T18:31:44;98625.31;;;18.38;52.57
37390;BME280;39679;49.000;8.390;2022-09-28T18:36:45;98632.31;;;18.39;52.63
37390;BME280;39679;49.000;8.390;2022-09-28T18:41:45;98636.84;;;18.37;52.49
37390;BME280;39679;49.000;8.390;2022-09-28T18:46:45;98645.75;;;18.36;52.38
37390;BME280;39679;49.000;8.390;2022-09-28T18:51:46;98647.47;;;18.37;52.56
37390;BME280;39679;49.000;8.390;2022-09-28T18:56:46;98652.84;;;18.35;52.39
37390;BME280;39679;49.000;8.390;2022-09-28T19:01:46;98655.50;;;18.35;52.37
37390;BME280;39679;49.000;8.390;2022-09-28T19:06:47;98661.72;;;18.34;52.25
37390;BME280;39679;49.000;8.390;2022-09-28T19:11:48;98668.81;;;18.34;52.36
37390;BME280;39679;49.000;8.390;2022-09-28T19:16:48;98669.75;;;18.33;52.44
37390;BME280;39679;49.000;8.390;2022-09-28T19:21:48;98671.53;;;18.32;52.23
37390;BME280;39679;49.000;8.390;2022-09-28T19:26:49;98680.28;;;18.34;52.46
37390;BME280;39679;49.000;8.390;2022-09-28T19:31:50;98675.06;;;18.33;52.32
37390;BME280;39679;49.000;8.390;2022-09-28T19:36:50;98675.06;;;18.33;52.39
37390;BME280;39679;49.000;8.390;2022-09-28T19:41:51;98670.69;;;18.32;52.53
37390;BME280;39679;49.000;8.390;2022-09-28T19:46:56;98683.09;;;18.31;52.31
37390;BME280;39679;49.000;8.390;2022-09-28T19:51:57;98685.75;;;18.31;51.79
37390;BME280;39679;49.000;8.390;2022-09-28T19:56:57;98690.19;;;18.31;52.39
37390;BME280;39679;49.000;8.390;2022-09-28T20:01:58;98699.06;;;18.30;52.38
37390;BME280;39679;49.000;8.390;2022-09-28T20:06:58;98704.38;;;18.30;52.40
37390;BME280;39679;49.000;8.390;2022-09-28T20:11:58;98714.13;;;18.29;52.38
37390;BME280;39679;49.000;8.390;2022-09-28T20:16:59;98715.06;;;18.28;52.50
37390;BME280;39679;49.000;8.390;2022-09-28T20:21:59;98718.56;;;18.29;52.48
37390;BME280;39679;49.000;8.390;2022-09-28T20:26:59;98705.41;;;18.27;52.60
37390;BME280;39679;49.000;8.390;2022-09-28T20:32:00;98705.31;;;18.29;52.51
37390;BME280;39679;49.000;8.390;2022-09-28T20:37:01;98706.09;;;18.31;52.84
37390;BME280;39679;49.000;8.390;2022-09-28T20:42:01;98704.31;;;18.31;52.66
37390;BME280;39679;49.000;8.390;2022-09-28T20:47:01;98704.31;;;18.31;52.70
37390;BME280;39679;49.000;8.390;2022-09-28T20:52:02;98721.06;;;18.32;52.56
37390;BME280;39679;49.000;8.390;2022-09-28T20:57:02;98711.25;;;18.34;52.87
37390;BME280;39679;49.000;8.390;2022-09-28T21:02:03;98706.88;;;18.33;52.94
37390;BME280;39679;49.000;8.390;2022-09-28T21:07:03;98709.47;;;18.34;52.88
37390;BME280;39679;49.000;8.390;2022-09-28T21:12:04;98712.97;;;18.35;52.79
37390;BME280;39679;49.000;8.390;2022-09-28T21:17:04;98712.91;;;18.36;53.41
37390;BME280;39679;49.000;8.390;2022-09-28T21:22:04;98715.53;;;18.36;53.16
37390;BME280;39679;49.000;8.390;2022-09-28T21:27:05;98705.81;;;18.37;52.85
37390;BME280;39679;49.000;8.390;2022-09-28T21:32:05;98699.63;;;18.36;52.98
37390;BME280;39679;49.000;8.390;2022-09-28T21:37:05;98711.97;;;18.37;53.80
37390;BME280;39679;49.000;8.390;2022-09-28T21:42:06;98709.31;;;18.37;54.17
37390;BME280;39679;49.000;8.390;2022-09-28T21:47:06;98706.69;;;18.37;54.32
37390;BME280;39679;49.000;8.390;2022-09-28T21:52:07;98699.50;;;18.39;54.43
37390;BME280;39679;49.000;8.390;2022-09-28T21:57:07;98700.38;;;18.40;54.75
37390;BME280;39679;49.000;8.390;2022-09-28T22:02:07;98699.50;;;18.39;55.02
37390;BME280;39679;49.000;8.390;2022-09-28T22:07:08;98700.28;;;18.41;55.03
37390;BME280;39679;49.000;8.390;2022-09-28T22:12:08;98709.94;;;18.42;55.25
37390;BME280;39679;49.000;8.390;2022-09-28T22:17:08;98695.84;;;18.42;55.06
37390;BME280;39679;49.000;8.390;2022-09-28T22:22:09;98704.63;;;18.42;54.85
37390;BME280;39679;49.000;8.390;2022-09-28T22:27:09;98701.16;;;18.42;54.72
37390;BME280;39679;49.000;8.390;2022-09-28T22:32:09;98705.59;;;18.41;54.46
37390;BME280;39679;49.000;8.390;2022-09-28T22:37:10;98702.94;;;18.41;54.41
37390;BME280;39679;49.000;8.390;2022-09-28T22:42:10;98710.09;;;18.39;54.33
37390;BME280;39679;49.000;8.390;2022-09-28T22:47:10;98709.25;;;18.39;54.36
37390;BME280;39679;49.000;8.390;2022-09-28T22:52:11;98714.63;;;18.37;54.31
37390;BME280;39679;49.000;8.390;2022-09-28T22:57:11;98714.63;;;18.37;54.25
37390;BME280;39679;49.000;8.390;2022-09-28T23:02:11;98709.41;;;18.36;54.13
37390;BME280;39679;49.000;8.390;2022-09-28T23:07:12;98712.06;;;18.36;54.17
37390;BME280;39679;49.000;8.390;2022-09-28T23:12:12;98704.94;;;18.36;54.27
37390;BME280;39679;49.000;8.390;2022-09-28T23:17:12;98707.69;;;18.35;54.34
37390;BME280;39679;49.000;8.390;2022-09-28T23:22:13;98704.94;;;18.36;54.45
37390;BME280;39679;49.000;8.390;2022-09-28T23:27:13;98711.19;;;18.35;54.23
37390;BME280;39679;49.000;8.390;2022-09-28T23:32:14;98715.53;;;18.36;53.94
37390;BME280;39679;49.000;8.390;2022-09-28T23:37:15;98698.81;;;18.36;54.06
37390;BME280;39679;49.000;8.390;2022-09-28T23:42:15;98706.81;;;18.34;53.78
37390;BME280;39679;49.000;8.390;2022-09-28T23:47:16;98712.09;;;18.34;53.85
37390;BME280;39679;49.000;8.390;2022-09-28T23:52:16;98712.09;;;18.34;53.72
37390;BME280;39679;49.000;8.390;2022-09-28T23:57:16;98712.06;;;18.36;53.66
